^^
Station Historical Data
Daily Summary for February 14, 2018 Units:  Both    English   Metric
« Previous Day
Next Day »
Daily Weekly Monthly Yearly Custom
  High: Low: Average:
Temperature: TemperatureF °F /  -17.8 °C 67.3 °F /  19.6 °C 74.3 °F /  23.5 °C
Dew Point: DewpointF °F /  -17.8 °C 54.1 °F /  12.3 °C 55.7 °F /  13.2 °C
Humidity: Humidity% 40% 52%
Wind Speed: WindSpeedMPHmph /  0km/h - -23.3mph /  -37.5km/h
Wind Gust: WindSpeedGustMPHmph /  0km/h - -
Wind- -
Pressure: PressureIn in /  0 hPa 29.75 in /  1007.3 hPa -
Precipitation: 0.00 in /  0 mm    
Historical Graphs
 
 
Tabular Data for February 14, 2018
Time Temperature Dew Point Pressure Wind Wind Speed Wind Gust Humidity Rainfall Rate (Hourly) solar Conditions
TemperatureF °F /  -17.8 °C DewpointF °F /  -17.8 °C PressureInin /  0hPa Calm     Humidity% HourlyPrecipInin /  0mm SoftwareType W/m2 Conditions
08:16 68.5 °F /  20.3 °C 54.1 °F /  12.3 °C 29.87in /  1011.4hPa North -999.9mph /  -1609.1km/h -999.0mph /  -1607.7km/h 60% 0.00in /  0mm meteobridge W/m2
08:23 68.4 °F /  20.2 °C 54.3 °F /  12.4 °C 29.87in /  1011.4hPa North 10.1mph /  16.3km/h 12.0mph /  19.3km/h 61% 0.00in /  0mm meteobridge W/m2
08:29 68.4 °F /  20.2 °C 54.3 °F /  12.4 °C 29.87in /  1011.4hPa NNE 4.9mph /  7.9km/h 12.0mph /  19.3km/h 61% 0.00in /  0mm meteobridge W/m2
08:35 67.8 °F /  19.9 °C 54.3 °F /  12.4 °C 29.87in /  1011.4hPa NNE 4.9mph /  7.9km/h 13.0mph /  20.9km/h 62% 0.00in /  0mm meteobridge W/m2
08:41 67.6 °F /  19.8 °C 55.0 °F /  12.8 °C 29.87in /  1011.4hPa NNE 8.9mph /  14.3km/h 13.0mph /  20.9km/h 64% 0.00in /  0mm meteobridge W/m2
08:47 67.3 °F /  19.6 °C 55.0 °F /  12.8 °C 29.87in /  1011.4hPa NNE 6.9mph /  11.1km/h 13.0mph /  20.9km/h 65% 0.00in /  0mm meteobridge W/m2
08:53 67.5 °F /  19.7 °C 55.8 °F /  13.2 °C 29.88in /  1011.7hPa North 8.9mph /  14.3km/h 11.0mph /  17.7km/h 66% 0.00in /  0mm meteobridge W/m2
08:59 67.8 °F /  19.9 °C 55.6 °F /  13.1 °C 29.87in /  1011.4hPa NNE 4.0mph /  6.4km/h 9.0mph /  14.5km/h 65% 0.00in /  0mm meteobridge W/m2
09:05 69.1 °F /  20.6 °C 56.8 °F /  13.8 °C 29.87in /  1011.4hPa North 6.0mph /  9.7km/h 7.0mph /  11.3km/h 65% 0.00in /  0mm meteobridge W/m2
09:11 69.8 °F /  21 °C 56.1 °F /  13.4 °C 29.87in /  1011.4hPa North 6.0mph /  9.7km/h 12.0mph /  19.3km/h 62% 0.00in /  0mm meteobridge W/m2
09:18 69.8 °F /  21 °C 56.1 °F /  13.4 °C 29.87in /  1011.4hPa NNE 4.0mph /  6.4km/h 10.0mph /  16.1km/h 62% 0.00in /  0mm meteobridge W/m2
09:24 70.3 °F /  21.3 °C 56.7 °F /  13.7 °C 29.87in /  1011.4hPa North 4.0mph /  6.4km/h 10.0mph /  16.1km/h 62% 0.00in /  0mm meteobridge W/m2
09:30 70.5 °F /  21.4 °C 56.8 °F /  13.8 °C 29.87in /  1011.4hPa North 10.1mph /  16.3km/h 13.0mph /  20.9km/h 62% 0.00in /  0mm meteobridge W/m2
09:52 71.8 °F /  22.1 °C 57.2 °F /  14 °C 29.87in /  1011.4hPa NNW 2.0mph /  3.2km/h 8.0mph /  12.9km/h 60% 0.00in /  0mm meteobridge W/m2
09:58 72.3 °F /  22.4 °C 57.7 °F /  14.3 °C 29.86in /  1011.1hPa NNE 4.9mph /  7.9km/h 6.0mph /  9.7km/h 60% 0.00in /  0mm meteobridge W/m2
10:05 72.1 °F /  22.3 °C 57.6 °F /  14.2 °C 29.86in /  1011.1hPa NNE 6.0mph /  9.7km/h 9.0mph /  14.5km/h 60% 0.00in /  0mm meteobridge W/m2
10:11 72.3 °F /  22.4 °C 57.2 °F /  14 °C 29.86in /  1011.1hPa North 10.1mph /  16.3km/h 10.1mph /  16.3km/h 59% 0.00in /  0mm meteobridge W/m2
10:17 72.7 °F /  22.6 °C 57.6 °F /  14.2 °C 29.86in /  1011.1hPa North 4.9mph /  7.9km/h 7.0mph /  11.3km/h 59% 0.00in /  0mm meteobridge W/m2
10:23 72.9 °F /  22.7 °C 57.2 °F /  14 °C 29.86in /  1011.1hPa North 8.9mph /  14.3km/h 11.0mph /  17.7km/h 58% 0.00in /  0mm meteobridge W/m2
10:29 72.9 °F /  22.7 °C 56.7 °F /  13.7 °C 29.85in /  1010.7hPa NNE 6.9mph /  11.1km/h 8.0mph /  12.9km/h 57% 0.00in /  0mm meteobridge W/m2
10:35 73.4 °F /  23 °C 57.2 °F /  14 °C 29.86in /  1011.1hPa North 2.9mph /  4.7km/h 10.0mph /  16.1km/h 57% 0.00in /  0mm meteobridge W/m2
10:41 74.5 °F /  23.6 °C 57.2 °F /  14 °C 29.86in /  1011.1hPa Calm   5.0mph /  8km/h 55% 0.00in /  0mm meteobridge W/m2
10:47 75.9 °F /  24.4 °C 57.6 °F /  14.2 °C 29.86in /  1011.1hPa NNE 4.0mph /  6.4km/h 5.0mph /  8km/h 53% 0.00in /  0mm meteobridge W/m2
10:54 76.8 °F /  24.9 °C 58.5 °F /  14.7 °C 29.86in /  1011.1hPa SSE 0.9mph /  1.4km/h 5.0mph /  8km/h 53% 0.00in /  0mm meteobridge W/m2
11:00 75.6 °F /  24.2 °C 56.7 °F /  13.7 °C 29.86in /  1011.1hPa NNE 4.0mph /  6.4km/h 6.0mph /  9.7km/h 52% 0.00in /  0mm meteobridge W/m2
11:06 74.5 °F /  23.6 °C 57.2 °F /  14 °C 29.86in /  1011.1hPa ESE 2.9mph /  4.7km/h 5.0mph /  8km/h 55% 0.00in /  0mm meteobridge W/m2
11:12 76.1 °F /  24.5 °C 57.7 °F /  14.3 °C 29.85in /  1010.7hPa ENE 2.9mph /  4.7km/h 5.0mph /  8km/h 53% 0.00in /  0mm meteobridge W/m2
11:18 74.8 °F /  23.8 °C 56.1 °F /  13.4 °C 29.85in /  1010.7hPa NNE 4.0mph /  6.4km/h 8.0mph /  12.9km/h 52% 0.00in /  0mm meteobridge W/m2
11:24 73.8 °F /  23.2 °C 56.1 °F /  13.4 °C 29.85in /  1010.7hPa NNE 6.0mph /  9.7km/h 10.0mph /  16.1km/h 54% 0.00in /  0mm meteobridge W/m2
11:30 73.9 °F /  23.3 °C 56.3 °F /  13.5 °C 29.85in /  1010.7hPa NNE 0.9mph /  1.4km/h 9.0mph /  14.5km/h 54% 0.00in /  0mm meteobridge W/m2
11:36 75.0 °F /  23.9 °C 56.7 °F /  13.7 °C 29.84in /  1010.4hPa ENE 2.0mph /  3.2km/h 4.0mph /  6.4km/h 53% 0.00in /  0mm meteobridge W/m2
11:43 75.9 °F /  24.4 °C 56.5 °F /  13.6 °C 29.84in /  1010.4hPa ENE 2.9mph /  4.7km/h 4.0mph /  6.4km/h 51% 0.00in /  0mm meteobridge W/m2
11:49 76.6 °F /  24.8 °C 57.7 °F /  14.3 °C 29.84in /  1010.4hPa ENE 4.0mph /  6.4km/h 4.0mph /  6.4km/h 52% 0.00in /  0mm meteobridge W/m2
11:55 78.3 °F /  25.7 °C 57.0 °F /  13.9 °C 29.83in /  1010hPa NNE 11.0mph /  17.7km/h 13.0mph /  20.9km/h 48% 0.00in /  0mm meteobridge W/m2
12:01 77.2 °F /  25.1 °C 55.9 °F /  13.3 °C 29.84in /  1010.4hPa North 2.0mph /  3.2km/h 11.0mph /  17.7km/h 48% 0.00in /  0mm meteobridge W/m2
12:07 77.0 °F /  25 °C 55.8 °F /  13.2 °C 29.83in /  1010hPa NNE 13.0mph /  20.9km/h 13.0mph /  20.9km/h 48% 0.00in /  0mm meteobridge W/m2
12:13 76.3 °F /  24.6 °C 55.2 °F /  12.9 °C 29.83in /  1010hPa NNE 8.9mph /  14.3km/h 18.0mph /  29km/h 48% 0.00in /  0mm meteobridge W/m2
12:19 76.8 °F /  24.9 °C 55.6 °F /  13.1 °C 29.83in /  1010hPa East 2.0mph /  3.2km/h 6.0mph /  9.7km/h 48% 0.00in /  0mm meteobridge W/m2
12:25 78.1 °F /  25.6 °C 56.3 °F /  13.5 °C 29.83in /  1010hPa ENE 4.0mph /  6.4km/h 7.0mph /  11.3km/h 47% 0.00in /  0mm meteobridge W/m2
12:31 79.3 °F /  26.3 °C 56.1 °F /  13.4 °C 29.82in /  1009.7hPa North 2.9mph /  4.7km/h 6.0mph /  9.7km/h 45% 0.00in /  0mm meteobridge W/m2
12:38 79.9 °F /  26.6 °C 55.9 °F /  13.3 °C 29.82in /  1009.7hPa NNE 10.1mph /  16.3km/h 12.0mph /  19.3km/h 44% 0.00in /  0mm meteobridge W/m2
12:44 79.5 °F /  26.4 °C 56.8 °F /  13.8 °C 29.82in /  1009.7hPa NNE 6.9mph /  11.1km/h 11.0mph /  17.7km/h 46% 0.00in /  0mm meteobridge W/m2
12:50 79.3 °F /  26.3 °C 56.1 °F /  13.4 °C 29.82in /  1009.7hPa NE 2.9mph /  4.7km/h 5.0mph /  8km/h 45% 0.00in /  0mm meteobridge W/m2
12:56 79.7 °F /  26.5 °C 56.5 °F /  13.6 °C 29.82in /  1009.7hPa NNE 12.1mph /  19.5km/h 14.0mph /  22.5km/h 45% 0.00in /  0mm meteobridge W/m2
13:02 78.4 °F /  25.8 °C 57.2 °F /  14 °C 29.81in /  1009.4hPa NE 12.1mph /  19.5km/h 12.1mph /  19.5km/h 48% 0.00in /  0mm meteobridge W/m2
13:08 79.3 °F /  26.3 °C 56.8 °F /  13.8 °C 29.81in /  1009.4hPa NE 2.9mph /  4.7km/h 6.0mph /  9.7km/h 46% 0.00in /  0mm meteobridge W/m2
13:14 80.1 °F /  26.7 °C 57.4 °F /  14.1 °C 29.80in /  1009hPa ESE 0.9mph /  1.4km/h 5.0mph /  8km/h 46% 0.00in /  0mm meteobridge W/m2
13:21 81.0 °F /  27.2 °C 57.6 °F /  14.2 °C 29.80in /  1009hPa NE 8.9mph /  14.3km/h 12.0mph /  19.3km/h 45% 0.00in /  0mm meteobridge W/m2
13:27 80.8 °F /  27.1 °C 57.4 °F /  14.1 °C 29.80in /  1009hPa ENE 2.0mph /  3.2km/h 4.0mph /  6.4km/h 45% 0.00in /  0mm meteobridge W/m2
13:33 81.5 °F /  27.5 °C 58.6 °F /  14.8 °C 29.80in /  1009hPa NNE 4.9mph /  7.9km/h 6.0mph /  9.7km/h 46% 0.00in /  0mm meteobridge W/m2
13:39 81.5 °F /  27.5 °C 55.6 °F /  13.1 °C 29.80in /  1009hPa North 0.9mph /  1.4km/h 10.0mph /  16.1km/h 41% 0.00in /  0mm meteobridge W/m2
13:45 82.2 °F /  27.9 °C 58.8 °F /  14.9 °C 29.79in /  1008.7hPa North 6.0mph /  9.7km/h 10.0mph /  16.1km/h 45% 0.00in /  0mm meteobridge W/m2
13:52 81.7 °F /  27.6 °C 57.6 °F /  14.2 °C 29.78in /  1008.4hPa East 4.9mph /  7.9km/h 6.0mph /  9.7km/h 44% 0.00in /  0mm meteobridge W/m2
13:58 83.1 °F /  28.4 °C 58.3 °F /  14.6 °C 29.78in /  1008.4hPa ESE 4.9mph /  7.9km/h 5.0mph /  8km/h 43% 0.00in /  0mm meteobridge W/m2
14:04 83.7 °F /  28.7 °C 57.4 °F /  14.1 °C 29.78in /  1008.4hPa NNE 6.9mph /  11.1km/h 7.0mph /  11.3km/h 41% 0.00in /  0mm meteobridge W/m2
14:10 82.4 °F /  28 °C 55.6 °F /  13.1 °C 29.78in /  1008.4hPa North 11.0mph /  17.7km/h 13.0mph /  20.9km/h 40% 0.00in /  0mm meteobridge W/m2
14:16 80.2 °F /  26.8 °C 55.0 °F /  12.8 °C 29.77in /  1008hPa NNE 2.0mph /  3.2km/h 5.0mph /  8km/h 42% 0.00in /  0mm meteobridge W/m2
14:22 78.6 °F /  25.9 °C 54.9 °F /  12.7 °C 29.77in /  1008hPa NE 2.0mph /  3.2km/h 5.0mph /  8km/h 44% 0.00in /  0mm meteobridge W/m2
14:29 77.7 °F /  25.4 °C 55.2 °F /  12.9 °C 29.76in /  1007.7hPa North 2.0mph /  3.2km/h 5.0mph /  8km/h 46% 0.00in /  0mm meteobridge W/m2
14:35 77.4 °F /  25.2 °C 55.0 °F /  12.8 °C 29.75in /  1007.3hPa ESE 2.9mph /  4.7km/h 5.0mph /  8km/h 46% 0.00in /  0mm meteobridge W/m2
14:41 77.7 °F /  25.4 °C 56.5 °F /  13.6 °C 29.75in /  1007.3hPa ESE 0.9mph /  1.4km/h 2.0mph /  3.2km/h 48% 0.00in /  0mm meteobridge W/m2
14:47 78.3 °F /  25.7 °C 56.3 °F /  13.5 °C 29.75in /  1007.3hPa NE 2.9mph /  4.7km/h 7.0mph /  11.3km/h 47% 0.00in /  0mm meteobridge W/m2
14:53 77.4 °F /  25.2 °C 56.7 °F /  13.7 °C 29.75in /  1007.3hPa SE 6.9mph /  11.1km/h 12.0mph /  19.3km/h 49% 0.00in /  0mm meteobridge W/m2
14:59 75.0 °F /  23.9 °C 56.1 °F /  13.4 °C 29.75in /  1007.3hPa SE 4.0mph /  6.4km/h 10.0mph /  16.1km/h 52% 0.00in /  0mm meteobridge W/m2
15:06 73.6 °F /  23.1 °C 55.9 °F /  13.3 °C 29.76in /  1007.7hPa SE 11.0mph /  17.7km/h 16.0mph /  25.7km/h 54% 0.00in /  0mm meteobridge W/m2
15:12 72.7 °F /  22.6 °C 56.5 °F /  13.6 °C 29.76in /  1007.7hPa East 10.1mph /  16.3km/h 10.1mph /  16.3km/h 57% 0.00in /  0mm meteobridge W/m2
15:18 72.7 °F /  22.6 °C 56.5 °F /  13.6 °C 29.77in /  1008hPa East 10.1mph /  16.3km/h -999.0mph /  -1607.7km/h 57% 0.00in /  0mm meteobridge W/m2
15:24 72.7 °F /  22.6 °C 56.5 °F /  13.6 °C 29.77in /  1008hPa East 10.1mph /  16.3km/h -999.0mph /  -1607.7km/h 57% 0.00in /  0mm meteobridge W/m2
15:31 72.7 °F /  22.6 °C 56.5 °F /  13.6 °C 29.75in /  1007.3hPa North -999.9mph /  -1609.1km/h -999.0mph /  -1607.7km/h 57% 0.00in /  0mm meteobridge W/m2
Regenstein, Windhoek, Namibia
Compliments of Weather Underground - 2.5 mb